Time;durP1;ratioP1;P1;durP2;ratioP2;P2;SDS_P1;SDS_P2;PMS_P1;PMS_P2;Temp;Humidity;BMP_temperature;BMP_pressure;BME280_temperature;BME280_humidity;BME280_pressure;Samples;Min_cycle;Max_cycle;Signal;HPM_P1;HPM_P2
2024/01/07 00:01:18;;;;;;;14.57;9.67;;;2.90;99.90;;;;;;5037965;28;38437;-82
2024/01/07 00:03:45;;;;;;;14.67;10.57;;;2.90;99.90;;;;;;5048012;28;39590;-83
2024/01/07 00:06:23;;;;;;;13.87;10.53;;;2.90;99.90;;;;;;5034715;28;38988;-83
2024/01/07 00:08:50;;;;;;;15.50;12.07;;;2.90;99.90;;;;;;5036655;28;38243;-82
2024/01/07 00:11:16;;;;;;;16.73;11.10;;;2.90;99.90;;;;;;5054093;28;37809;-82
2024/01/07 00:13:47;;;;;;;11.97;10.00;;;2.90;99.90;;;;;;5038552;28;38043;-82
2024/01/07 00:16:13;;;;;;;13.70;10.30;;;2.90;99.90;;;;;;5055360;28;39343;-83
2024/01/07 00:18:39;;;;;;;14.43;10.37;;;2.90;99.90;;;;;;5038539;28;38975;-82
2024/01/07 00:21:08;;;;;;;14.00;10.43;;;2.90;99.90;;;;;;5055018;28;39975;-82
2024/01/07 00:23:53;;;;;;;13.97;10.13;;;3.00;99.90;;;;;;5039654;28;38753;-82
2024/01/07 00:26:31;;;;;;;13.33;9.80;;;2.90;99.90;;;;;;5038325;28;38074;-81
2024/01/07 00:28:58;;;;;;;12.60;9.87;;;2.90;99.90;;;;;;5041302;28;38796;-82
2024/01/07 00:31:44;;;;;;;12.93;10.37;;;2.90;99.90;;;;;;5056842;28;38755;-82
2024/01/07 00:34:18;;;;;;;14.87;10.30;;;2.90;99.90;;;;;;5033746;28;39011;-82
2024/01/07 00:36:53;;;;;;;10.93;9.03;;;2.90;99.90;;;;;;5055901;28;40197;-81
2024/01/07 00:39:25;;;;;;;12.67;9.73;;;2.90;99.90;;;;;;5036046;28;38866;-82
2024/01/07 00:42:01;;;;;;;12.87;10.20;;;2.90;99.90;;;;;;5048217;28;38612;-83
2024/01/07 00:44:27;;;;;;;13.60;10.53;;;2.90;99.90;;;;;;5038732;28;47632;-82
2024/01/07 00:46:54;;;;;;;15.47;10.53;;;2.90;99.90;;;;;;5047068;28;40097;-83
2024/01/07 00:49:20;;;;;;;15.33;10.57;;;2.90;99.90;;;;;;5035798;28;38726;-81
2024/01/07 00:51:47;;;;;;;14.37;9.93;;;2.90;99.90;;;;;;5053531;28;36758;-82
2024/01/07 00:54:38;;;;;;;15.03;11.23;;;2.90;99.90;;;;;;5034440;28;38791;-81
2024/01/07 00:57:14;;;;;;;14.10;10.07;;;2.80;99.90;;;;;;5033142;28;38843;-82
2024/01/07 00:59:47;;;;;;;12.17;8.70;;;3.00;99.90;;;;;;5036664;28;38400;-81
2024/01/07 01:02:16;;;;;;;10.50;8.30;;;2.90;99.90;;;;;;5053804;28;39002;-81
2024/01/07 01:04:50;;;;;;;10.03;8.40;;;2.90;99.90;;;;;;5037229;28;37459;-82
2024/01/07 01:07:46;;;;;;;11.57;8.57;;;2.80;99.90;;;;;;5035322;28;39191;-82
2024/01/07 01:10:29;;;;;;;11.83;9.53;;;2.90;99.90;;;;;;5038909;28;38501;-80
2024/01/07 01:13:14;;;;;;;13.35;10.02;;;2.90;99.90;;;;;;5038262;28;37672;-81
2024/01/07 01:15:48;;;;;;;12.43;9.10;;;2.90;99.90;;;;;;5039021;28;48369;-81
2024/01/07 01:18:17;;;;;;;10.97;8.67;;;2.80;99.90;;;;;;5035294;28;39239;-81
2024/01/07 01:20:50;;;;;;;11.80;9.10;;;2.70;99.90;;;;;;5042832;28;38554;-81
2024/01/07 01:23:25;;;;;;;12.10;9.07;;;2.80;99.90;;;;;;5025273;28;37924;-82
2024/01/07 01:25:53;;;;;;;13.60;9.40;;;2.70;99.90;;;;;;5053536;28;39812;-81
2024/01/07 01:28:19;;;;;;;12.20;8.93;;;2.70;99.90;;;;;;5038693;28;38967;-82
2024/01/07 01:31:07;;;;;;;10.03;8.43;;;2.70;99.90;;;;;;5056756;28;39808;-82
2024/01/07 01:33:45;;;;;;;10.80;8.97;;;2.80;99.90;;;;;;5037079;28;48441;-83
2024/01/07 01:36:27;;;;;;;11.93;9.33;;;2.70;99.90;;;;;;5038463;28;38518;-82
2024/01/07 01:38:56;;;;;;;12.10;9.30;;;2.70;99.90;;;;;;5038217;28;37906;-82
2024/01/07 01:41:36;;;;;;;12.10;8.87;;;2.70;99.90;;;;;;5020344;28;38622;-81
2024/01/07 01:44:04;;;;;;;13.30;10.10;;;2.70;99.90;;;;;;5047900;28;38750;-80
2024/01/07 01:46:54;;;;;;;11.87;8.87;;;2.70;99.90;;;;;;5039791;28;38007;-81
2024/01/07 01:49:21;;;;;;;11.40;9.10;;;2.70;99.90;;;;;;5023792;28;39295;-82
2024/01/07 01:51:52;;;;;;;11.63;9.40;;;2.70;99.90;;;;;;5057675;28;41416;-82
2024/01/07 01:54:19;;;;;;;11.70;9.10;;;2.70;99.90;;;;;;5054103;28;38359;-82
2024/01/07 01:56:46;;;;;;;10.47;8.60;;;2.70;99.90;;;;;;5039576;28;38838;-82
2024/01/07 01:59:14;;;;;;;10.90;8.90;;;2.70;99.90;;;;;;5052143;28;39420;-82
2024/01/07 02:04:17;;;;;;;13.30;9.60;;;2.80;99.90;;;;;;4096986;23;20506;-77
2024/01/07 02:06:45;;;;;;;10.93;9.20;;;2.80;99.90;;;;;;4981842;28;39464;-77
2024/01/07 02:09:11;;;;;;;10.43;8.80;;;2.80;99.90;;;;;;4986328;28;38587;-77
2024/01/07 02:11:38;;;;;;;11.13;9.03;;;2.80;99.90;;;;;;4969647;28;37637;-76
2024/01/07 02:14:04;;;;;;;11.40;9.87;;;2.80;99.90;;;;;;4981300;28;38776;-76
2024/01/07 02:16:30;;;;;;;11.63;9.70;;;2.70;99.90;;;;;;4982284;28;39533;-77
2024/01/07 02:18:56;;;;;;;13.87;10.17;;;2.70;99.90;;;;;;5003859;28;39051;-77
2024/01/07 02:21:22;;;;;;;13.40;10.20;;;2.60;99.90;;;;;;5006727;28;38427;-77
2024/01/07 02:23:48;;;;;;;15.93;11.03;;;2.60;99.90;;;;;;4976928;28;37683;-77
2024/01/07 02:26:15;;;;;;;14.03;11.27;;;2.60;99.90;;;;;;4974933;28;37719;-76
2024/01/07 02:28:41;;;;;;;13.90;10.93;;;2.60;99.90;;;;;;4974997;28;40350;-77
2024/01/07 02:31:08;;;;;;;15.33;10.83;;;2.60;99.90;;;;;;4978254;28;37338;-77
2024/01/07 02:33:34;;;;;;;13.90;11.83;;;2.60;99.90;;;;;;4989635;28;38348;-77
2024/01/07 02:36:00;;;;;;;16.60;12.17;;;2.60;99.90;;;;;;4998240;28;39370;-77
2024/01/07 02:38:26;;;;;;;16.23;12.83;;;2.60;99.90;;;;;;4971758;28;39684;-76
2024/01/07 02:40:52;;;;;;;15.93;11.93;;;2.60;99.90;;;;;;4990623;28;38683;-76
2024/01/07 02:43:18;;;;;;;16.40;12.93;;;2.60;99.90;;;;;;5000562;28;38220;-76
2024/01/07 02:45:44;;;;;;;16.83;12.77;;;2.60;99.90;;;;;;4983852;28;39397;-76
2024/01/07 02:48:10;;;;;;;15.93;12.53;;;2.50;99.90;;;;;;4991497;28;40008;-76
2024/01/07 02:50:37;;;;;;;17.00;12.67;;;2.60;99.90;;;;;;4989903;28;39417;-76
2024/01/07 02:53:03;;;;;;;18.53;13.87;;;2.60;99.90;;;;;;4988332;28;37725;-77
2024/01/07 02:55:29;;;;;;;16.50;12.83;;;2.60;99.90;;;;;;5010065;28;38526;-76
2024/01/07 02:57:55;;;;;;;15.73;12.33;;;2.60;99.90;;;;;;4989939;28;39233;-76
2024/01/07 03:00:21;;;;;;;15.43;13.10;;;2.50;99.90;;;;;;4980007;28;38297;-76
2024/01/07 03:02:47;;;;;;;18.47;13.10;;;2.60;99.90;;;;;;4989510;28;48646;-77
2024/01/07 03:05:14;;;;;;;17.57;13.40;;;2.60;99.90;;;;;;4985386;28;40124;-77
2024/01/07 03:07:40;;;;;;;18.13;14.77;;;2.60;99.90;;;;;;4978737;28;38675;-77
2024/01/07 03:10:06;;;;;;;16.83;13.30;;;2.60;99.90;;;;;;4988326;28;40128;-77
2024/01/07 03:12:32;;;;;;;17.37;13.33;;;2.50;99.90;;;;;;4983759;28;37418;-76
2024/01/07 03:14:59;;;;;;;17.40;13.03;;;2.60;99.90;;;;;;5004902;28;39139;-77
2024/01/07 03:17:25;;;;;;;16.00;13.00;;;2.50;99.90;;;;;;4990916;28;40624;-76
2024/01/07 03:19:51;;;;;;;16.67;12.83;;;2.50;99.90;;;;;;4990002;28;38425;-77
2024/01/07 03:22:17;;;;;;;15.90;12.37;;;2.50;99.90;;;;;;4988628;28;36412;-77
2024/01/07 03:24:43;;;;;;;16.63;11.93;;;2.50;99.90;;;;;;5004380;28;39600;-77
2024/01/07 03:27:09;;;;;;;16.37;12.53;;;2.50;99.90;;;;;;5006322;28;39529;-77
2024/01/07 03:29:36;;;;;;;16.53;12.03;;;2.30;99.90;;;;;;4988213;28;38712;-77
2024/01/07 03:32:02;;;;;;;16.30;11.33;;;2.40;99.90;;;;;;5010514;28;37794;-77
2024/01/07 03:34:28;;;;;;;14.37;11.67;;;2.40;99.90;;;;;;4989111;28;39500;-76
2024/01/07 03:36:54;;;;;;;14.17;11.00;;;2.40;99.90;;;;;;4985831;28;39065;-76
2024/01/07 03:39:20;;;;;;;15.57;12.20;;;2.40;99.90;;;;;;4985174;28;37857;-77
2024/01/07 03:41:46;;;;;;;15.40;11.77;;;2.30;99.90;;;;;;4999993;28;37379;-77
2024/01/07 03:44:13;;;;;;;16.73;12.47;;;2.30;99.90;;;;;;4988766;28;39578;-76
2024/01/07 03:46:39;;;;;;;15.10;11.90;;;2.30;99.90;;;;;;4987785;28;39799;-77
2024/01/07 03:49:05;;;;;;;16.30;11.93;;;2.30;99.90;;;;;;5006224;28;39803;-77
2024/01/07 03:51:31;;;;;;;21.37;13.87;;;2.30;99.90;;;;;;5005272;28;38572;-77
2024/01/07 03:53:57;;;;;;;17.43;12.67;;;2.30;99.90;;;;;;4998305;28;38880;-77
2024/01/07 03:56:23;;;;;;;23.27;14.20;;;2.20;99.90;;;;;;5013001;28;38128;-77
2024/01/07 03:58:49;;;;;;;18.97;13.63;;;2.20;99.90;;;;;;5004789;28;38279;-76
2024/01/07 04:01:17;;;;;;;20.97;13.60;;;2.10;99.90;;;;;;5008887;28;38226;-77
2024/01/07 04:03:43;;;;;;;18.50;13.93;;;2.20;99.90;;;;;;4993282;28;41166;-77
2024/01/07 04:06:09;;;;;;;20.93;15.03;;;2.20;99.90;;;;;;5006566;28;38255;-77
2024/01/07 04:08:35;;;;;;;21.40;14.60;;;2.10;99.90;;;;;;5008358;28;38632;-77
2024/01/07 04:11:02;;;;;;;20.03;14.83;;;2.10;99.90;;;;;;4988714;28;37729;-76
2024/01/07 04:13:28;;;;;;;21.03;14.73;;;2.10;99.90;;;;;;5003744;28;48877;-76
2024/01/07 04:15:54;;;;;;;20.90;15.20;;;2.20;99.90;;;;;;5001550;28;38463;-77
2024/01/07 04:18:20;;;;;;;19.53;14.90;;;2.20;99.90;;;;;;4985390;28;37289;-77
2024/01/07 04:20:47;;;;;;;20.03;15.10;;;2.20;99.90;;;;;;4989623;28;38787;-76
2024/01/07 04:23:13;;;;;;;20.57;15.40;;;2.20;99.90;;;;;;5001788;28;39040;-77
2024/01/07 04:25:40;;;;;;;22.43;16.40;;;2.20;99.90;;;;;;5009322;28;38853;-77
2024/01/07 04:28:06;;;;;;;19.73;15.50;;;2.20;99.90;;;;;;4992698;28;39218;-77
2024/01/07 04:30:33;;;;;;;22.20;15.60;;;2.20;99.90;;;;;;4990771;28;38260;-77
2024/01/07 04:32:59;;;;;;;24.20;16.00;;;2.20;99.90;;;;;;4982338;28;40876;-77
2024/01/07 04:35:25;;;;;;;22.77;16.50;;;2.20;99.90;;;;;;4993836;28;39662;-77
2024/01/07 04:37:51;;;;;;;19.90;14.37;;;2.20;99.90;;;;;;4989526;28;37309;-76
2024/01/07 04:40:17;;;;;;;22.03;15.10;;;2.20;99.90;;;;;;5003447;28;36968;-76
2024/01/07 04:42:43;;;;;;;19.53;13.77;;;2.20;99.90;;;;;;4989189;28;39684;-77
2024/01/07 04:45:09;;;;;;;22.73;15.07;;;2.20;99.90;;;;;;4988796;28;38637;-76
2024/01/07 04:47:35;;;;;;;20.37;15.33;;;2.20;99.90;;;;;;4986896;28;38972;-76
2024/01/07 04:50:03;;;;;;;21.73;14.83;;;2.30;99.90;;;;;;5005384;28;37136;-77
2024/01/07 04:52:30;;;;;;;19.87;14.23;;;2.20;99.90;;;;;;4987390;28;41168;-76
2024/01/07 04:54:56;;;;;;;21.30;14.83;;;2.20;99.90;;;;;;4981884;28;40330;-76
2024/01/07 04:57:22;;;;;;;21.07;14.83;;;2.30;99.90;;;;;;4987720;28;38614;-77
2024/01/07 04:59:49;;;;;;;20.10;14.67;;;2.30;99.90;;;;;;4988029;28;37668;-76
2024/01/07 05:02:16;;;;;;;21.30;15.03;;;2.20;99.90;;;;;;5004241;28;39597;-76
2024/01/07 05:04:42;;;;;;;21.80;14.90;;;2.30;99.90;;;;;;5008633;28;38711;-77
2024/01/07 05:07:08;;;;;;;20.43;14.60;;;2.30;99.90;;;;;;4987711;28;41971;-76
2024/01/07 05:09:34;;;;;;;21.87;14.63;;;2.30;99.90;;;;;;4998392;28;37440;-77
2024/01/07 05:12:02;;;;;;;16.90;12.90;;;2.20;99.90;;;;;;4990531;28;20050;-77
2024/01/07 05:14:28;;;;;;;20.33;12.83;;;2.20;99.90;;;;;;5004939;28;38838;-77
2024/01/07 05:16:55;;;;;;;18.17;13.93;;;2.20;99.90;;;;;;4985751;28;37894;-77
2024/01/07 05:19:21;;;;;;;18.47;13.37;;;2.20;99.90;;;;;;4978084;28;38047;-74
2024/01/07 05:21:47;;;;;;;18.07;13.47;;;2.20;99.90;;;;;;5008232;28;39714;-74
2024/01/07 05:24:13;;;;;;;19.33;14.10;;;2.10;99.90;;;;;;4985298;28;39528;-73
2024/01/07 05:26:44;;;;;;;21.77;14.30;;;2.10;99.90;;;;;;5008399;28;38489;-75
2024/01/07 05:29:11;;;;;;;18.17;13.97;;;2.10;99.90;;;;;;5003996;28;38458;-75
2024/01/07 05:31:39;;;;;;;19.27;14.40;;;2.20;99.90;;;;;;4974983;28;38696;-74
2024/01/07 05:34:06;;;;;;;19.93;14.73;;;2.20;99.90;;;;;;4989896;28;40333;-78
2024/01/07 05:36:32;;;;;;;22.57;15.37;;;2.20;99.90;;;;;;4988615;28;37365;-75
2024/01/07 05:38:58;;;;;;;17.20;13.27;;;2.20;99.90;;;;;;4984318;28;37647;-74
2024/01/07 05:41:24;;;;;;;18.90;13.23;;;2.20;99.90;;;;;;4986880;28;38752;-77
2024/01/07 05:43:51;;;;;;;18.10;13.33;;;2.10;99.90;;;;;;4988327;28;39442;-74
2024/01/07 05:46:17;;;;;;;20.57;14.43;;;2.00;99.90;;;;;;5003362;28;38651;-75
2024/01/07 05:48:45;;;;;;;21.93;13.53;;;2.00;99.90;;;;;;4987598;28;36305;-75
2024/01/07 05:51:11;;;;;;;20.23;14.43;;;2.00;99.90;;;;;;4983956;28;39758;-75
2024/01/07 05:53:38;;;;;;;22.03;15.00;;;2.00;99.90;;;;;;4981722;28;37993;-75
2024/01/07 05:56:04;;;;;;;23.97;15.97;;;2.00;99.90;;;;;;4986941;28;39203;-75
2024/01/07 05:58:30;;;;;;;20.53;14.70;;;2.00;99.90;;;;;;4987213;28;37755;-75
2024/01/07 06:00:58;;;;;;;20.53;15.40;;;2.00;99.90;;;;;;4987926;28;39408;-74
2024/01/07 06:03:24;;;;;;;22.57;15.70;;;2.00;99.90;;;;;;4986318;28;40170;-75
2024/01/07 06:05:50;;;;;;;22.57;16.17;;;2.00;99.90;;;;;;4987461;28;37562;-75
2024/01/07 06:08:16;;;;;;;26.13;16.63;;;2.00;99.90;;;;;;5008402;28;39623;-75
2024/01/07 06:10:43;;;;;;;25.70;17.30;;;2.00;99.90;;;;;;4997559;28;40211;-75
2024/01/07 06:13:09;;;;;;;26.70;17.37;;;1.90;99.90;;;;;;4987797;28;40101;-75
2024/01/07 06:15:35;;;;;;;28.70;17.57;;;1.90;99.90;;;;;;4991650;28;38463;-75
2024/01/07 06:18:02;;;;;;;25.17;16.77;;;1.90;99.90;;;;;;4989608;28;38371;-75
2024/01/07 06:20:28;;;;;;;26.60;19.13;;;1.90;99.90;;;;;;4989773;28;39428;-75
2024/01/07 06:22:54;;;;;;;28.23;19.03;;;1.90;99.90;;;;;;5006624;28;38218;-75
2024/01/07 06:25:20;;;;;;;25.03;17.27;;;1.90;99.90;;;;;;4985327;28;39552;-77
2024/01/07 06:27:47;;;;;;;29.03;19.17;;;2.00;99.90;;;;;;5013787;28;38764;-74
2024/01/07 06:30:13;;;;;;;29.17;18.63;;;2.00;99.90;;;;;;4987197;28;38893;-75
2024/01/07 06:32:40;;;;;;;27.43;18.00;;;1.90;99.90;;;;;;4995130;28;39379;-75
2024/01/07 06:35:06;;;;;;;30.27;19.60;;;1.90;99.90;;;;;;5003316;28;38319;-75
2024/01/07 06:37:32;;;;;;;28.30;19.17;;;1.90;99.90;;;;;;4987400;28;38772;-75
2024/01/07 06:39:58;;;;;;;26.07;18.67;;;2.00;99.90;;;;;;5018710;28;40837;-75
2024/01/07 06:42:24;;;;;;;25.93;18.10;;;2.00;99.90;;;;;;4981635;28;37771;-75
2024/01/07 06:44:51;;;;;;;26.77;17.63;;;2.00;99.90;;;;;;4990620;28;39205;-75
2024/01/07 06:47:17;;;;;;;24.17;17.43;;;2.00;99.90;;;;;;4999048;28;38267;-75
2024/01/07 06:49:43;;;;;;;26.60;17.77;;;2.00;99.90;;;;;;4998969;28;39514;-75
2024/01/07 06:52:09;;;;;;;24.37;17.23;;;2.00;99.90;;;;;;4981719;28;41367;-76
2024/01/07 06:54:35;;;;;;;25.43;17.03;;;2.00;99.90;;;;;;5004385;28;38426;-75
2024/01/07 06:57:02;;;;;;;22.53;15.27;;;2.10;99.90;;;;;;4987360;28;38005;-75
2024/01/07 06:59:28;;;;;;;24.13;16.87;;;2.00;99.90;;;;;;4989924;28;47146;-76
2024/01/07 07:01:56;;;;;;;26.60;17.07;;;2.00;99.90;;;;;;5001280;28;38961;-75
2024/01/07 07:04:22;;;;;;;24.83;16.40;;;2.10;99.90;;;;;;4998207;28;38610;-75
2024/01/07 07:06:48;;;;;;;25.17;15.80;;;2.10;99.90;;;;;;4983077;28;38013;-74
2024/01/07 07:09:15;;;;;;;24.03;16.60;;;2.10;99.90;;;;;;5006035;28;39542;-75
2024/01/07 07:11:41;;;;;;;22.63;16.40;;;2.00;99.90;;;;;;5004551;28;39057;-75
2024/01/07 07:14:07;;;;;;;23.97;17.33;;;2.00;99.90;;;;;;4988022;28;38565;-75
2024/01/07 07:16:33;;;;;;;24.77;16.43;;;2.00;99.90;;;;;;5012894;28;37811;-76
2024/01/07 07:18:59;;;;;;;23.70;16.73;;;2.10;99.90;;;;;;5003711;28;37993;-74
2024/01/07 07:21:27;;;;;;;24.50;17.13;;;2.10;99.90;;;;;;4989881;28;39073;-75
2024/01/07 07:23:53;;;;;;;25.33;16.93;;;2.10;99.90;;;;;;5006552;28;39258;-75
2024/01/07 07:26:19;;;;;;;26.07;17.50;;;2.00;99.90;;;;;;4982143;28;38148;-75
2024/01/07 07:28:46;;;;;;;24.27;18.23;;;2.10;99.90;;;;;;4984319;28;39341;-75
2024/01/07 07:31:12;;;;;;;28.40;18.10;;;2.10;99.90;;;;;;4984067;28;39560;-75
2024/01/07 07:33:42;;;;;;;26.20;17.63;;;2.10;99.90;;;;;;4986099;28;39985;-75
2024/01/07 07:36:09;;;;;;;27.50;17.03;;;2.10;99.90;;;;;;5000978;28;36028;-75
2024/01/07 07:38:35;;;;;;;25.63;16.97;;;2.10;99.90;;;;;;4981914;28;39615;-75
2024/01/07 07:41:01;;;;;;;22.73;16.33;;;2.00;99.90;;;;;;4981211;28;40372;-75
2024/01/07 07:43:28;;;;;;;23.73;16.53;;;2.10;99.90;;;;;;5005842;28;47684;-75
2024/01/07 07:45:54;;;;;;;25.57;18.53;;;2.10;99.90;;;;;;4985822;28;39102;-75
2024/01/07 07:48:20;;;;;;;22.47;15.80;;;2.10;99.90;;;;;;4988488;28;39328;-75
2024/01/07 07:50:46;;;;;;;21.93;15.87;;;2.10;99.90;;;;;;4989835;28;39410;-76
2024/01/07 07:53:13;;;;;;;24.50;16.63;;;2.10;99.90;;;;;;4988551;28;38752;-76
2024/01/07 07:55:40;;;;;;;24.40;17.00;;;2.10;99.90;;;;;;4990929;28;36330;-76
2024/01/07 07:58:06;;;;;;;23.07;16.03;;;2.10;99.90;;;;;;4986852;28;39723;-76
2024/01/07 08:00:32;;;;;;;21.27;15.93;;;2.10;99.90;;;;;;4989041;28;39271;-76
2024/01/07 08:02:58;;;;;;;23.77;16.33;;;2.00;99.90;;;;;;5006207;28;38661;-76
2024/01/07 08:05:24;;;;;;;22.50;15.23;;;2.10;99.90;;;;;;4987927;28;39305;-76
2024/01/07 08:07:50;;;;;;;24.50;15.30;;;2.10;99.90;;;;;;4987622;28;39555;-76
2024/01/07 08:10:17;;;;;;;23.63;15.77;;;2.00;99.90;;;;;;4989903;28;39185;-76
2024/01/07 08:12:43;;;;;;;20.97;15.10;;;1.90;99.90;;;;;;5006576;28;38647;-75
2024/01/07 08:15:09;;;;;;;25.90;15.73;;;2.00;99.90;;;;;;5004454;28;37049;-76
2024/01/07 08:17:35;;;;;;;20.27;14.93;;;2.00;99.90;;;;;;5005639;28;39423;-76
2024/01/07 08:20:02;;;;;;;26.33;17.00;;;2.00;99.90;;;;;;4989159;28;39423;-76
2024/01/07 08:22:29;;;;;;;21.77;16.70;;;2.00;99.90;;;;;;5021199;28;37384;-76
2024/01/07 08:24:55;;;;;;;24.07;16.83;;;1.90;99.90;;;;;;4988920;28;38182;-76
2024/01/07 08:27:21;;;;;;;23.00;17.47;;;2.00;99.90;;;;;;5017452;28;39221;-76
2024/01/07 08:29:47;;;;;;;22.73;16.73;;;2.00;99.90;;;;;;5000323;28;38803;-76
2024/01/07 08:32:13;;;;;;;22.43;15.90;;;1.90;99.90;;;;;;4982894;28;39808;-76
2024/01/07 08:34:40;;;;;;;19.73;15.03;;;1.90;99.90;;;;;;5007521;28;37664;-76
2024/01/07 08:37:07;;;;;;;24.40;16.03;;;1.80;99.90;;;;;;4989155;28;40636;-76
2024/01/07 08:39:33;;;;;;;21.17;15.03;;;1.80;99.90;;;;;;4985186;28;40398;-76
2024/01/07 08:41:59;;;;;;;23.70;15.17;;;1.80;99.90;;;;;;4988288;28;38662;-77
2024/01/07 08:44:25;;;;;;;20.60;15.37;;;1.80;99.90;;;;;;5007719;28;37971;-76
2024/01/07 08:46:52;;;;;;;20.33;14.47;;;1.80;99.90;;;;;;4984526;28;40117;-76
2024/01/07 08:49:18;;;;;;;22.33;15.63;;;1.80;99.90;;;;;;5018066;28;39217;-76
2024/01/07 08:51:44;;;;;;;22.30;15.37;;;1.80;99.90;;;;;;4991252;28;39440;-76
2024/01/07 08:54:10;;;;;;;22.37;14.63;;;1.80;99.90;;;;;;4986414;28;36185;-76
2024/01/07 08:56:37;;;;;;;23.00;15.63;;;1.90;99.90;;;;;;4986718;28;40351;-76
2024/01/07 08:59:04;;;;;;;19.60;14.47;;;1.90;99.90;;;;;;5003344;28;37884;-76
2024/01/07 09:01:30;;;;;;;18.40;13.40;;;2.00;99.90;;;;;;5002564;28;38913;-76
2024/01/07 09:03:56;;;;;;;18.10;13.00;;;1.90;99.90;;;;;;5007813;28;37470;-76
2024/01/07 09:06:22;;;;;;;19.90;13.40;;;2.00;99.90;;;;;;5009511;28;39902;-76
2024/01/07 09:08:49;;;;;;;23.87;14.03;;;2.00;99.90;;;;;;4987358;28;39122;-76
2024/01/07 09:11:18;;;;;;;20.77;12.63;;;2.00;99.90;;;;;;4981854;28;39091;-76
2024/01/07 09:13:44;;;;;;;18.43;13.43;;;1.90;99.90;;;;;;4988064;28;37816;-77
2024/01/07 09:16:11;;;;;;;16.97;12.80;;;1.90;99.90;;;;;;4983554;28;37673;-76
2024/01/07 09:18:37;;;;;;;19.37;13.47;;;1.80;99.90;;;;;;4987567;28;38177;-76
2024/01/07 09:21:03;;;;;;;23.70;13.07;;;1.80;99.90;;;;;;5002804;28;41099;-76
2024/01/07 09:23:30;;;;;;;18.33;12.23;;;1.90;99.90;;;;;;4977249;28;36307;-76
2024/01/07 09:25:56;;;;;;;17.77;12.57;;;1.90;99.90;;;;;;4983821;28;37950;-76
2024/01/07 09:28:22;;;;;;;18.37;12.57;;;1.80;99.90;;;;;;4983033;28;38950;-76
2024/01/07 09:30:48;;;;;;;18.40;12.37;;;1.80;99.90;;;;;;5002773;28;38750;-76
2024/01/07 09:33:15;;;;;;;15.27;11.30;;;1.90;99.90;;;;;;4978233;28;38078;-75
2024/01/07 09:35:42;;;;;;;18.77;13.13;;;1.80;99.90;;;;;;4989315;28;40173;-76
2024/01/07 09:38:08;;;;;;;16.83;12.57;;;1.90;99.90;;;;;;4986275;28;37602;-76
2024/01/07 09:40:34;;;;;;;16.07;12.20;;;1.80;99.90;;;;;;4983885;28;40500;-76
2024/01/07 09:43:00;;;;;;;20.17;12.63;;;1.80;99.90;;;;;;4986966;28;37637;-76
2024/01/07 09:45:28;;;;;;;19.03;12.90;;;1.90;99.90;;;;;;4999507;28;47467;-77
2024/01/07 09:47:55;;;;;;;20.67;12.37;;;1.90;99.90;;;;;;5000512;28;40464;-78
2024/01/07 09:50:22;;;;;;;17.27;12.83;;;1.90;99.90;;;;;;4998125;28;37133;-80
2024/01/07 09:53:04;;;;;;;16.63;12.50;;;1.90;99.90;;;;;;5000663;28;36335;-81
2024/01/07 09:55:40;;;;;;;15.65;12.52;;;1.90;99.90;;;;;;4985299;28;47776;-78
2024/01/07 09:58:06;;;;;;;20.13;13.27;;;1.90;99.90;;;;;;4980934;28;37445;-78
2024/01/07 10:00:32;;;;;;;15.93;12.90;;;1.90;99.90;;;;;;4978017;28;40092;-78
2024/01/07 10:02:59;;;;;;;19.40;13.33;;;1.90;99.90;;;;;;4985376;28;38972;-78
2024/01/07 10:05:25;;;;;;;19.23;13.40;;;1.90;99.90;;;;;;4980816;28;37751;-78
2024/01/07 10:07:54;;;;;;;18.03;12.77;;;1.90;99.90;;;;;;5010493;28;40477;-77
2024/01/07 10:19:31;;;;;;;17.93;12.50;;;1.90;99.90;;;;;;5072694;28;20798;-78
2024/01/07 10:22:04;;;;;;;18.83;13.07;;;1.80;99.10;;;;;;5057136;28;37376;-80
2024/01/07 10:24:43;;;;;;;19.70;13.57;;;1.80;99.90;;;;;;5061252;28;37725;-80
2024/01/07 10:27:10;;;;;;;16.53;11.80;;;1.80;99.90;;;;;;5067640;28;38036;-83
2024/01/07 10:29:37;;;;;;;15.63;11.43;;;1.90;99.40;;;;;;5050963;28;38500;-83
2024/01/07 10:32:07;;;;;;;14.33;11.10;;;1.90;95.80;;;;;;5053088;28;36465;-83
2024/01/07 10:34:35;;;;;;;14.60;11.57;;;1.80;87.40;;;;;;5069432;28;36929;-80
2024/01/07 10:37:03;;;;;;;15.13;10.50;;;1.80;90.30;;;;;;5063526;28;39027;-86
2024/01/07 10:39:30;;;;;;;16.43;10.77;;;1.80;84.80;;;;;;5057338;28;35496;-81
2024/01/07 10:44:33;;;;;;;13.83;10.33;;;1.80;70.40;;;;;;2985712;22;20061;-79
2024/01/07 10:47:00;;;;;;;15.33;10.17;;;1.80;70.20;;;;;;5022447;28;39179;-78
2024/01/07 10:49:27;;;;;;;15.30;11.67;;;1.90;71.80;;;;;;5003644;28;37520;-78
2024/01/07 10:52:06;;;;;;;16.50;11.80;;;1.90;66.50;;;;;;5004244;28;36856;-77
2024/01/07 10:54:34;;;;;;;14.50;10.63;;;1.90;72.70;;;;;;4987829;28;48759;-78
2024/01/07 10:57:13;;;;;;;15.53;10.80;;;2.00;75.10;;;;;;4985412;28;38593;-79
2024/01/07 10:59:41;;;;;;;15.40;10.73;;;2.10;76.50;;;;;;5007076;28;48109;-79
2024/01/07 11:02:09;;;;;;;16.33;11.47;;;2.20;69.30;;;;;;5005916;28;38823;-80
2024/01/07 11:04:42;;;;;;;16.33;11.73;;;2.20;65.50;;;;;;5033931;28;37358;-81
2024/01/07 11:08:04;;;;;;;16.00;11.63;;;2.20;69.50;;;;;;5021253;28;38803;-78
2024/01/07 11:11:17;;;;;;;14.30;10.50;;;2.30;76.00;;;;;;4981918;28;38601;-77
2024/01/07 11:13:44;;;;;;;14.67;10.90;;;2.20;63.60;;;;;;4936509;28;47273;-77
2024/01/07 11:16:13;;;;;;;13.50;9.30;;;1.90;54.20;;;;;;4940845;28;36514;-77
2024/01/07 11:18:53;;;;;;;14.10;9.40;;;1.80;49.90;;;;;;4951314;28;38003;-77
2024/01/07 11:21:26;;;;;;;13.80;10.07;;;1.70;45.80;;;;;;4968574;28;38235;-77
2024/01/07 11:23:53;;;;;;;14.65;9.88;;;1.70;47.60;;;;;;4968928;28;36548;-77
2024/01/07 11:26:22;;;;;;;13.80;9.67;;;1.70;44.70;;;;;;4967141;28;36865;-77
2024/01/07 11:28:53;;;;;;;14.17;10.33;;;1.80;44.10;;;;;;4974405;28;39449;-77
2024/01/07 11:31:21;;;;;;;13.77;10.43;;;1.90;48.40;;;;;;4956979;28;37821;-77
2024/01/07 11:33:49;;;;;;;14.53;9.90;;;2.00;52.40;;;;;;4969674;28;37051;-77
2024/01/07 11:36:16;;;;;;;14.00;9.83;;;2.00;47.10;;;;;;4967806;28;37557;-77
2024/01/07 11:38:44;;;;;;;14.70;9.50;;;2.10;44.00;;;;;;4968962;28;39478;-78
2024/01/07 11:41:13;;;;;;;13.07;9.33;;;2.20;38.40;;;;;;4950398;28;37612;-77
2024/01/07 11:43:55;;;;;;;10.70;8.53;;;2.30;29.70;;;;;;5005998;28;36887;-76
2024/01/07 11:46:22;;;;;;;13.10;9.27;;;2.20;19.00;;;;;;5016787;28;38400;-77
2024/01/07 11:48:52;;;;;;;14.17;9.70;;;2.10;21.80;;;;;;5006638;28;37662;-78
2024/01/07 11:51:18;;;;;;;13.30;8.43;;;2.20;26.50;;;;;;4995118;28;40949;-77
2024/01/07 11:53:49;;;;;;;11.53;7.90;;;2.20;26.50;;;;;;4993413;28;36505;-78
2024/01/07 11:56:16;;;;;;;13.97;7.53;;;2.20;14.80;;;;;;4984316;28;35957;-78
2024/01/07 11:58:42;;;;;;;11.50;7.27;;;2.10;6.60;;;;;;4992876;28;38676;-76
2024/01/07 12:01:08;;;;;;;8.63;7.23;;;2.10;17.30;;;;;;4984340;28;37902;-77
2024/01/07 12:03:34;;;;;;;12.70;7.10;;;2.10;6.60;;;;;;4995788;28;38402;-76
2024/01/07 12:06:01;;;;;;;12.27;8.57;;;2.10;9.30;;;;;;4989299;28;37815;-75
2024/01/07 12:08:27;;;;;;;13.23;7.57;;;2.10;7.50;;;;;;4981249;28;47494;-76
2024/01/07 12:10:54;;;;;;;9.47;7.00;;;2.20;15.20;;;;;;4974798;28;37217;-76
2024/01/07 12:13:21;;;;;;;10.63;8.17;;;2.20;8.40;;;;;;5020674;28;36361;-77
2024/01/07 12:15:47;;;;;;;11.47;8.43;;;2.20;4.20;;;;;;5003903;28;35882;-74
2024/01/07 12:18:14;;;;;;;10.93;6.77;;;2.20;11.70;;;;;;5013898;28;37504;-76
2024/01/07 12:20:57;;;;;;;8.57;6.30;;;2.20;1.00;;;;;;5001939;28;39377;-76
2024/01/07 12:23:25;;;;;;;8.53;6.00;;;2.10;1.00;;;;;;4994375;28;36325;-77
2024/01/07 12:25:57;;;;;;;9.43;5.80;;;2.00;1.00;;;;;;4988015;28;37037;-77
2024/01/07 12:28:24;;;;;;;9.80;5.45;;;1.90;1.00;;;;;;4980595;28;37603;-76
2024/01/07 12:30:50;;;;;;;8.77;6.07;;;1.80;1.00;;;;;;4988307;28;39284;-77
2024/01/07 12:33:20;;;;;;;8.90;5.93;;;1.80;1.00;;;;;;4998964;28;37083;-77
2024/01/07 12:35:47;;;;;;;6.67;5.27;;;1.90;6.10;;;;;;5005737;28;35973;-76
2024/01/07 12:38:13;;;;;;;10.03;5.63;;;2.10;6.10;;;;;;5003357;28;39459;-77
2024/01/07 12:40:40;;;;;;;9.97;6.07;;;2.20;3.30;;;;;;4998148;28;38154;-77
2024/01/07 12:43:06;;;;;;;10.47;6.17;;;2.30;1.00;;;;;;4999754;28;37977;-77
2024/01/07 12:45:33;;;;;;;6.00;4.87;;;2.40;1.00;;;;;;5016707;28;35932;-77
2024/01/07 12:48:02;;;;;;;7.73;4.77;;;2.40;1.00;;;;;;4979643;28;37593;-76
2024/01/07 12:50:30;;;;;;;10.00;4.60;;;2.40;1.00;;;;;;4993747;28;47215;-77
2024/01/07 12:52:57;;;;;;;8.50;4.60;;;2.40;1.00;;;;;;4991580;28;35669;-77
2024/01/07 12:55:25;;;;;;;6.97;4.37;;;2.30;1.00;;;;;;4998250;28;34495;-77
2024/01/07 12:57:51;;;;;;;6.93;4.57;;;2.20;1.00;;;;;;4995882;28;38048;-77
2024/01/07 13:00:20;;;;;;;6.83;4.50;;;2.20;1.00;;;;;;4990452;28;37290;-79